createdAt,value
2022-08-26T00:01:07.491Z,20.02
2022-08-26T00:04:10.278Z,19.92
2022-08-26T00:07:12.133Z,19.96
2022-08-26T00:10:17.297Z,19.94
2022-08-26T00:13:22.015Z,19.91
2022-08-26T00:16:28.336Z,19.89
2022-08-26T00:19:30.136Z,19.86
2022-08-26T00:22:31.766Z,19.82
2022-08-26T00:25:33.512Z,19.78
2022-08-26T00:28:35.488Z,19.76
2022-08-26T00:31:37.890Z,19.72
2022-08-26T00:34:40.651Z,19.71
2022-08-26T00:37:43.234Z,19.66
2022-08-26T00:40:50.368Z,19.65
2022-08-26T00:43:52.646Z,19.62
2022-08-26T00:47:00.083Z,19.59
2022-08-26T00:50:07.376Z,19.54
2022-08-26T00:53:23.982Z,19.54
2022-08-26T00:56:41.106Z,19.50
2022-08-26T00:59:46.484Z,19.45
2022-08-26T01:02:50.569Z,19.39
2022-08-26T01:05:56.152Z,19.36
2022-08-26T01:08:58.325Z,19.34
2022-08-26T01:12:02.962Z,19.31
2022-08-26T01:15:05.977Z,19.28
2022-08-26T01:18:08.711Z,19.23
2022-08-26T01:21:21.662Z,19.20
2022-08-26T01:24:27.606Z,19.16
2022-08-26T01:27:32.603Z,19.13
2022-08-26T01:30:40.439Z,19.08
2022-08-26T01:34:02.017Z,19.04
2022-08-26T01:37:03.722Z,19.02
2022-08-26T01:40:12.403Z,19.00
2022-08-26T01:43:19.616Z,18.96
2022-08-26T01:46:24.636Z,18.90
2022-08-26T01:49:55.709Z,18.91
2022-08-26T01:53:00.908Z,18.87
2022-08-26T01:56:03.988Z,18.83
2022-08-26T01:59:10.728Z,18.80
2022-08-26T02:02:13.947Z,18.75
2022-08-26T02:05:19.339Z,18.70
2022-08-26T02:08:26.075Z,18.68
2022-08-26T02:11:28.383Z,18.65
2022-08-26T02:14:35.049Z,18.60
2022-08-26T02:17:47.257Z,18.59
2022-08-26T02:20:54.233Z,18.57
2022-08-26T02:23:56.467Z,18.54
2022-08-26T02:27:01.473Z,18.51
2022-08-26T02:30:11.210Z,18.50
2022-08-26T02:33:13.318Z,18.48
2022-08-26T02:36:20.876Z,18.46
2022-08-26T02:39:22.769Z,18.46
2022-08-26T02:42:24.496Z,18.41
2022-08-26T02:45:28.022Z,18.38
2022-08-26T02:48:30.311Z,18.39
2022-08-26T02:51:31.992Z,18.37
2022-08-26T02:54:34.958Z,18.34
2022-08-26T02:57:37.642Z,18.34
2022-08-26T03:00:52.531Z,18.36
2022-08-26T03:03:55.098Z,18.33
2022-08-26T03:06:57.054Z,18.34
2022-08-26T03:09:59.075Z,18.34
2022-08-26T03:13:05.146Z,18.33
2022-08-26T03:16:07.638Z,18.30
2022-08-26T03:19:09.656Z,18.30
2022-08-26T03:22:12.023Z,18.26
2022-08-26T03:25:17.011Z,18.27
2022-08-26T03:28:19.356Z,18.27
2022-08-26T03:31:21.516Z,18.27
2022-08-26T03:34:26.284Z,18.24
2022-08-26T03:37:28.020Z,18.25
2022-08-26T03:40:29.811Z,18.22
2022-08-26T03:43:31.472Z,18.24
2022-08-26T03:46:33.635Z,18.22
2022-08-26T03:49:35.927Z,18.24
2022-08-26T03:52:43.025Z,18.21
2022-08-26T03:55:47.651Z,18.22
2022-08-26T03:58:54.211Z,18.21
2022-08-26T04:01:55.864Z,18.18
2022-08-26T04:04:57.684Z,18.20
2022-08-26T04:07:59.551Z,18.19
2022-08-26T04:11:01.611Z,18.20
2022-08-26T04:14:07.286Z,18.17
2022-08-26T04:17:08.936Z,18.20
2022-08-26T04:20:13.928Z,18.20
2022-08-26T04:23:17.872Z,18.18
2022-08-26T04:26:21.188Z,18.17
2022-08-26T04:29:26.528Z,18.18
2022-08-26T04:32:28.583Z,18.17
2022-08-26T04:35:31.428Z,18.18
2022-08-26T04:38:34.487Z,18.17
2022-08-26T04:41:36.926Z,18.18
2022-08-26T04:44:38.565Z,18.13
2022-08-26T04:47:41.184Z,18.19
2022-08-26T04:51:29.767Z,18.21
2022-08-26T04:54:31.515Z,18.20
2022-08-26T04:57:33.678Z,18.22
2022-08-26T05:00:36.055Z,18.23
2022-08-26T05:08:14.974Z,18.27
2022-08-26T05:11:17.202Z,18.28
2022-08-26T05:14:22.233Z,18.30
2022-08-26T05:17:27.299Z,18.34
2022-08-26T05:20:28.965Z,18.37
2022-08-26T05:23:34.066Z,18.40
2022-08-26T05:26:36.176Z,18.41
2022-08-26T05:29:37.870Z,18.43
2022-08-26T05:32:39.566Z,18.44
2022-08-26T05:35:43.075Z,18.46
2022-08-26T05:38:44.918Z,18.47
2022-08-26T05:41:46.826Z,18.49
2022-08-26T05:44:55.412Z,18.57
2022-08-26T05:47:57.975Z,18.63
2022-08-26T05:51:04.972Z,18.67
2022-08-26T05:54:10.326Z,18.73
2022-08-26T05:57:13.877Z,18.76
2022-08-26T06:00:16.272Z,18.79
2022-08-26T06:03:18.847Z,18.83
2022-08-26T06:06:27.584Z,18.86
2022-08-26T06:09:30.823Z,18.91
2022-08-26T06:12:33.762Z,18.93
2022-08-26T06:15:39.728Z,18.95
2022-08-26T06:18:46.415Z,19.00
2022-08-26T06:21:51.313Z,19.03
2022-08-26T06:25:15.407Z,19.06
2022-08-26T06:28:17.540Z,19.12
2022-08-26T06:31:19.879Z,19.15
2022-08-26T06:34:22.532Z,19.19
2022-08-26T06:37:28.314Z,19.26
2022-08-26T06:40:31.328Z,19.31
2022-08-26T06:43:33.160Z,19.39
2022-08-26T06:46:35.378Z,19.46
2022-08-26T06:49:37.341Z,19.54
2022-08-26T06:52:42.445Z,19.61
2022-08-26T06:55:46.211Z,19.67
2022-08-26T06:58:48.703Z,19.73
2022-08-26T07:01:50.402Z,19.80
2022-08-26T07:04:52.061Z,19.92
2022-08-26T07:07:58.451Z,20.06
2022-08-26T07:11:05.619Z,20.15
2022-08-26T07:14:07.717Z,20.26
2022-08-26T07:17:13.759Z,20.36
2022-08-26T07:20:16.061Z,20.45
2022-08-26T07:23:18.758Z,20.55
2022-08-26T07:26:24.893Z,20.62
2022-08-26T07:29:26.663Z,20.73
2022-08-26T07:32:28.536Z,20.82
2022-08-26T07:35:30.206Z,20.93
2022-08-26T07:38:33.842Z,21.01
2022-08-26T07:41:36.652Z,21.05
2022-08-26T07:44:39.712Z,21.12
2022-08-26T07:47:42.450Z,21.22
2022-08-26T07:50:50.505Z,21.30
2022-08-26T07:53:53.389Z,21.34
2022-08-26T07:56:55.893Z,21.42
2022-08-26T07:59:58.064Z,21.46
2022-08-26T08:03:01.363Z,21.50
2022-08-26T08:06:03.101Z,21.54
2022-08-26T08:09:05.115Z,21.57
2022-08-26T08:12:09.524Z,21.65
2022-08-26T08:15:17.108Z,21.70
2022-08-26T08:18:20.351Z,21.72
2022-08-26T08:21:26.536Z,21.80
2022-08-26T08:24:28.584Z,21.86
2022-08-26T08:27:33.622Z,21.94
2022-08-26T08:30:39.154Z,22.02
2022-08-26T08:33:40.814Z,22.15
2022-08-26T08:36:42.847Z,22.32
2022-08-26T08:39:45.459Z,22.41
2022-08-26T08:42:59.221Z,22.58
2022-08-26T08:46:07.750Z,22.67
2022-08-26T08:49:11.080Z,22.79
2022-08-26T08:52:31.132Z,22.93
2022-08-26T08:55:41.996Z,23.08
2022-08-26T08:58:46.561Z,23.18
2022-08-26T09:01:59.868Z,23.27
2022-08-26T09:05:20.057Z,23.32
2022-08-26T09:08:27.469Z,23.39
2022-08-26T09:11:30.402Z,23.46
2022-08-26T09:14:32.018Z,23.51
2022-08-26T09:17:51.899Z,23.57
2022-08-26T09:20:59.356Z,23.63
2022-08-26T09:24:01.126Z,23.68
2022-08-26T09:27:02.734Z,23.72
2022-08-26T09:30:11.481Z,23.76
2022-08-26T09:33:18.811Z,23.81
2022-08-26T09:36:35.389Z,23.82
2022-08-26T09:39:40.831Z,23.84
2022-08-26T09:42:42.933Z,23.86
2022-08-26T09:45:50.630Z,23.91
2022-08-26T09:48:53.272Z,23.98
2022-08-26T09:52:21.381Z,24.06
2022-08-26T09:55:23.732Z,24.09
2022-08-26T10:01:41.861Z,24.36
2022-08-26T10:04:52.101Z,24.48
2022-08-26T10:07:53.914Z,24.58
2022-08-26T10:10:58.949Z,24.68
2022-08-26T10:14:17.257Z,24.77
2022-08-26T10:17:46.981Z,24.90
2022-08-26T10:20:56.461Z,25.06
2022-08-26T10:24:02.026Z,25.24
2022-08-26T10:27:31.593Z,25.38
2022-08-26T10:30:42.954Z,25.37
2022-08-26T10:33:44.799Z,25.41
2022-08-26T10:37:15.919Z,25.54
2022-08-26T10:40:24.110Z,25.63
2022-08-26T10:43:30.388Z,25.71
2022-08-26T10:46:44.298Z,25.76
2022-08-26T10:49:49.472Z,25.79
2022-08-26T10:53:33.108Z,25.75
2022-08-26T10:56:49.888Z,25.73
2022-08-26T11:00:29.493Z,25.67
2022-08-26T11:03:50.675Z,25.64
2022-08-26T11:07:31.602Z,25.61
2022-08-26T11:10:44.856Z,25.54
2022-08-26T11:14:01.907Z,25.51
2022-08-26T11:17:11.836Z,25.50
2022-08-26T11:20:22.673Z,25.48
2022-08-26T11:23:28.201Z,25.44
2022-08-26T11:26:55.549Z,25.41
2022-08-26T11:30:00.600Z,25.39
2022-08-26T11:33:02.773Z,25.40
2022-08-26T11:36:11.532Z,25.43
2022-08-26T11:39:25.464Z,25.48
2022-08-26T11:42:41.690Z,25.48
2022-08-26T11:45:47.514Z,25.52
2022-08-26T11:48:49.349Z,25.54
2022-08-26T11:51:51.381Z,25.54
2022-08-26T11:55:14.331Z,25.58
2022-08-26T11:58:16.527Z,25.63
2022-08-26T12:01:39.934Z,25.76
2022-08-26T12:04:46.390Z,25.81
2022-08-26T12:07:50.942Z,25.90
2022-08-26T12:11:11.439Z,25.91
2022-08-26T12:14:22.400Z,25.93
2022-08-26T12:17:27.898Z,26.04
2022-08-26T12:20:48.837Z,26.12
2022-08-26T12:23:54.592Z,26.19
2022-08-26T12:27:30.914Z,26.24
2022-08-26T12:30:32.973Z,26.31
2022-08-26T12:33:36.369Z,26.32
2022-08-26T12:36:46.481Z,26.31
2022-08-26T12:39:49.164Z,26.32
2022-08-26T12:42:51.270Z,26.43
2022-08-26T12:45:58.401Z,26.51
2022-08-26T12:49:03.901Z,26.64
2022-08-26T12:52:07.616Z,26.74
2022-08-26T12:55:28.616Z,26.79
2022-08-26T12:58:33.084Z,26.86
2022-08-26T13:01:42.906Z,26.96
2022-08-26T13:04:46.149Z,26.96
2022-08-26T13:08:24.437Z,26.99
2022-08-26T13:11:26.070Z,26.99
2022-08-26T13:14:27.769Z,27.04
2022-08-26T13:17:30.661Z,27.12
2022-08-26T13:20:32.612Z,27.24
2022-08-26T13:23:34.423Z,27.34
2022-08-26T13:26:36.189Z,27.44
2022-08-26T13:29:38.260Z,27.63
2022-08-26T13:32:40.555Z,27.84
2022-08-26T13:35:44.510Z,28.05
2022-08-26T13:38:48.423Z,28.26
2022-08-26T13:41:54.380Z,28.45
2022-08-26T13:44:58.159Z,28.56
2022-08-26T13:48:00.487Z,28.56
2022-08-26T13:51:02.917Z,28.44
2022-08-26T13:54:09.926Z,28.38
2022-08-26T13:57:11.543Z,28.41
2022-08-26T14:00:15.145Z,28.46
2022-08-26T14:03:17.179Z,28.64
2022-08-26T14:06:19.300Z,28.84
2022-08-26T14:09:20.928Z,29.07
2022-08-26T14:12:22.813Z,29.12
2022-08-26T14:15:25.195Z,28.98
2022-08-26T14:18:33.348Z,28.71
2022-08-26T14:21:37.891Z,28.47
2022-08-26T14:24:39.537Z,28.28
2022-08-26T14:27:44.793Z,28.11
2022-08-26T14:30:53.210Z,27.94
2022-08-26T14:33:58.440Z,27.93
2022-08-26T14:37:07.659Z,28.13
2022-08-26T14:40:10.647Z,28.25
2022-08-26T14:43:15.203Z,28.46
2022-08-26T14:46:18.405Z,28.50
2022-08-26T14:49:21.816Z,28.55
2022-08-26T14:52:23.555Z,28.44
2022-08-26T14:55:26.334Z,28.53
2022-08-26T14:58:32.939Z,28.62
2022-08-26T15:01:37.112Z,28.76
2022-08-26T15:04:39.228Z,29.04
2022-08-26T15:07:41.118Z,29.39
2022-08-26T15:10:42.802Z,29.79
2022-08-26T15:13:45.799Z,30.21
2022-08-26T15:16:53.979Z,30.65
2022-08-26T15:19:55.643Z,31.00
2022-08-26T15:22:58.221Z,31.37
2022-08-26T15:26:04.373Z,31.67
2022-08-26T15:29:06.752Z,31.93
2022-08-26T15:32:08.653Z,32.07
2022-08-26T15:35:10.407Z,32.20
2022-08-26T15:38:12.918Z,32.30
2022-08-26T15:41:14.820Z,32.34
2022-08-26T15:44:18.453Z,32.40
2022-08-26T15:47:20.234Z,32.39
2022-08-26T15:50:22.202Z,32.41
2022-08-26T15:53:29.546Z,32.47
2022-08-26T15:56:34.445Z,32.53
2022-08-26T15:59:36.586Z,32.55
2022-08-26T16:02:38.478Z,32.58
2022-08-26T16:05:43.610Z,32.58
2022-08-26T16:08:45.964Z,32.57
2022-08-26T16:11:47.695Z,32.48
2022-08-26T16:14:52.689Z,32.37
2022-08-26T16:17:54.515Z,32.23
2022-08-26T16:21:13.381Z,32.02
2022-08-26T16:24:15.994Z,31.66
2022-08-26T16:27:17.698Z,31.25
2022-08-26T16:30:20.715Z,30.85
2022-08-26T16:33:29.170Z,30.38
2022-08-26T16:36:31.654Z,30.03
2022-08-26T16:39:33.361Z,29.77
2022-08-26T16:42:41.959Z,29.52
2022-08-26T16:45:43.595Z,29.29
2022-08-26T16:48:45.690Z,29.07
2022-08-26T16:51:47.528Z,28.72
2022-08-26T16:54:49.406Z,28.51
2022-08-26T16:57:51.503Z,28.38
2022-08-26T17:00:53.160Z,28.18
2022-08-26T17:03:54.924Z,28.04
2022-08-26T17:06:56.729Z,27.81
2022-08-26T17:09:58.928Z,27.44
2022-08-26T17:13:00.804Z,26.79
2022-08-26T17:16:04.233Z,26.13
2022-08-26T17:19:09.350Z,25.69
2022-08-26T17:22:12.153Z,25.32
2022-08-26T17:25:18.277Z,24.97
2022-08-26T17:28:19.914Z,24.67
2022-08-26T17:31:23.422Z,24.36
2022-08-26T17:34:26.424Z,24.05
2022-08-26T17:37:28.349Z,23.71
2022-08-26T17:40:31.686Z,23.29
2022-08-26T17:43:34.199Z,23.08
2022-08-26T17:46:38.424Z,22.92
2022-08-26T17:49:40.924Z,22.72
2022-08-26T17:52:44.018Z,22.50
2022-08-26T17:55:46.566Z,22.23
2022-08-26T17:58:51.250Z,21.99
2022-08-26T18:01:55.598Z,21.71
2022-08-26T18:04:58.056Z,21.48
2022-08-26T18:12:41.010Z,20.97
2022-08-26T18:15:45.432Z,20.89
2022-08-26T18:18:48.623Z,20.84
2022-08-26T18:21:50.402Z,20.77
2022-08-26T18:24:59.075Z,20.73
2022-08-26T18:28:01.189Z,20.70
2022-08-26T18:31:05.507Z,20.68
2022-08-26T18:34:07.614Z,20.65
2022-08-26T18:40:17.660Z,20.61
2022-08-26T18:43:19.493Z,20.59
2022-08-26T18:46:23.070Z,20.56
2022-08-26T18:49:24.832Z,20.52
2022-08-26T18:52:27.483Z,20.47
2022-08-26T18:55:29.065Z,20.44
2022-08-26T18:58:30.612Z,20.42
2022-08-26T19:01:34.266Z,20.39
2022-08-26T19:04:38.596Z,20.38
2022-08-26T19:07:40.373Z,20.35
2022-08-26T19:10:43.185Z,20.33
2022-08-26T19:13:45.346Z,20.32
2022-08-26T19:16:50.065Z,20.30
2022-08-26T19:19:53.533Z,20.28
2022-08-26T19:22:57.403Z,20.25
2022-08-26T19:26:04.800Z,20.21
2022-08-26T19:29:06.743Z,20.19
2022-08-26T19:32:08.797Z,20.15
2022-08-26T19:35:10.604Z,20.13
2022-08-26T19:38:12.354Z,20.12
2022-08-26T19:41:16.536Z,20.09
2022-08-26T19:44:39.316Z,20.11
2022-08-26T19:47:41.012Z,20.10
2022-08-26T19:50:46.072Z,20.09
2022-08-26T19:53:48.819Z,20.07
2022-08-26T19:56:51.064Z,20.05
2022-08-26T19:59:52.703Z,19.99
2022-08-26T20:02:55.507Z,19.97
2022-08-26T20:05:57.207Z,19.96
2022-08-26T20:08:58.879Z,19.96
2022-08-26T20:12:01.169Z,19.97
2022-08-26T20:15:05.127Z,19.91
2022-08-26T20:18:27.803Z,19.86
2022-08-26T20:21:35.545Z,19.87
2022-08-26T20:24:37.189Z,19.79
2022-08-26T20:27:38.871Z,19.72
2022-08-26T20:30:40.533Z,19.73
2022-08-26T20:33:46.435Z,19.71
2022-08-26T20:36:50.120Z,19.70
2022-08-26T20:39:51.813Z,19.65
2022-08-26T20:42:53.509Z,19.64
2022-08-26T20:45:55.419Z,19.63
2022-08-26T20:48:58.193Z,19.59
2022-08-26T20:52:00.358Z,19.59
2022-08-26T20:55:02.466Z,19.52
2022-08-26T20:58:04.242Z,19.53
2022-08-26T21:01:08.174Z,19.49
2022-08-26T21:04:14.035Z,19.47
2022-08-26T21:07:15.693Z,19.44
2022-08-26T21:10:19.590Z,19.42
2022-08-26T21:13:21.821Z,19.38
2022-08-26T21:16:23.548Z,19.39
2022-08-26T21:19:25.438Z,19.38
2022-08-26T21:22:28.232Z,19.31
2022-08-26T21:25:29.983Z,19.25
2022-08-26T21:28:31.745Z,19.28
2022-08-26T21:31:33.678Z,19.33
2022-08-26T21:34:35.442Z,19.32
2022-08-26T21:37:37.207Z,19.26
2022-08-26T21:40:38.814Z,19.27
2022-08-26T21:43:41.626Z,19.26
2022-08-26T21:46:45.510Z,19.16
2022-08-26T21:49:47.762Z,19.17
2022-08-26T21:52:49.495Z,19.15
2022-08-26T21:55:51.178Z,19.14
2022-08-26T21:58:55.020Z,19.09
2022-08-26T22:01:57.568Z,19.14
2022-08-26T22:04:59.217Z,19.12
2022-08-26T22:08:00.870Z,19.07
2022-08-26T22:11:02.840Z,19.07
2022-08-26T22:14:05.004Z,19.02
2022-08-26T22:17:06.740Z,19.01
2022-08-26T22:20:16.572Z,19.02
2022-08-26T22:23:20.215Z,18.98
2022-08-26T22:26:25.451Z,18.96
2022-08-26T22:29:27.644Z,18.93
2022-08-26T22:32:29.417Z,18.93
2022-08-26T22:35:31.392Z,18.91
2022-08-26T22:38:33.195Z,18.89
2022-08-26T22:41:35.355Z,18.87
2022-08-26T22:44:37.567Z,18.81
2022-08-26T22:47:40.252Z,18.82
2022-08-26T22:50:43.842Z,18.81
2022-08-26T22:53:45.796Z,18.78
2022-08-26T22:56:47.622Z,18.78
2022-08-26T22:59:49.282Z,18.78
2022-08-26T23:02:50.997Z,18.78
2022-08-26T23:05:52.799Z,18.77
2022-08-26T23:08:57.200Z,18.79
2022-08-26T23:11:58.910Z,18.78
2022-08-26T23:15:01.373Z,18.79
2022-08-26T23:18:03.803Z,18.78
2022-08-26T23:21:06.060Z,18.78
2022-08-26T23:24:11.036Z,18.76
2022-08-26T23:27:12.754Z,18.75
2022-08-26T23:30:18.799Z,18.74
2022-08-26T23:33:22.606Z,18.72
2022-08-26T23:36:24.576Z,18.72
2022-08-26T23:39:26.909Z,18.70
2022-08-26T23:42:29.042Z,18.69
2022-08-26T23:45:35.834Z,18.67
2022-08-26T23:48:37.740Z,18.65
2022-08-26T23:51:57.825Z,18.66
2022-08-26T23:54:59.445Z,18.64
2022-08-26T23:58:01.117Z,18.64
